METAR Data
IDs: Format: Raw Decoded Include TAF

Data at: 0147 UTC 12 May 2021

KIMS 120135Z AUTO 01003KT 10SM CLR 11/01 A3032 RMK AO2
KIMS 120115Z AUTO 01005KT 10SM CLR 11/01 A3031 RMK AO2
KIMS 120055Z AUTO 01003KT 10SM CLR 11/01 A3030 RMK AO2
KIMS 120035Z AUTO 01004KT 10SM CLR 11/01 A3028 RMK AO2
KIMS 120015Z AUTO 36003KT 10SM CLR 12/01 A3028 RMK AO2
KIMS 112355Z AUTO 01003KT 10SM CLR 12/01 A3028 RMK AO2
KIMS 112335Z AUTO 00000KT 10SM CLR 12/01 A3028 RMK AO2
KIMS 112315Z AUTO 01004KT 10SM CLR 12/01 A3027 RMK AO2
KIMS 112255Z AUTO 01004KT 10SM CLR 12/00 A3025 RMK AO2
KIMS 112235Z AUTO 01005KT 10SM CLR 12/00 A3025 RMK AO2
KIMS 112215Z AUTO 01003KT 10SM CLR 13/00 A3025 RMK AO2
KIMS 112155Z AUTO 01006KT 10SM SCT120 13/01 A3026 RMK AO2
KIMS 112135Z AUTO 34008KT 10SM SCT120 13/01 A3026 RMK AO2
KIMS 112115Z AUTO 34005KT 10SM CLR 14/01 A3026 RMK AO2
KIMS 112055Z AUTO 33005KT 10SM CLR 14/00 A3026 RMK AO2
KIMS 112035Z AUTO 33009KT 309V009 10SM CLR 15/01 A3025 RMK AO2
KIMS 112016Z AUTO 31009KT 10SM CLR 16/01 A3025 RMK AO2
KIMS 112001Z AUTO 01004KT 10SM CLR 17/02 A3024 RMK AO2
KIMS 111942Z AUTO 36006KT 10SM SCT060 16/02 A3025 RMK AO2
KIMS 111915Z AUTO 35006G14KT 329V029 10SM SCT060 16/03 A3025 RMK AO2
KIMS 111855Z AUTO 05005KT 10SM SCT060 15/03 A3026 RMK AO2
KIMS 111835Z AUTO 04005KT 10SM BKN060 14/02 A3027 RMK AO2
KIMS 111815Z AUTO 05007KT 10SM SCT050 SCT065 15/03 A3028 RMK AO2
KIMS 111755Z AUTO 06005KT 10SM SCT050 15/04 A3028 RMK AO2
KIMS 111735Z AUTO 36005KT 10SM SCT047 14/03 A3028 RMK AO2
KIMS 111715Z AUTO 02005KT 10SM SCT045 SCT055 15/05 A3029 RMK AO2
KIMS 111655Z AUTO 02007KT 10SM BKN049 14/05 A3029 RMK AO2
KIMS 111635Z AUTO 34007KT 319V019 10SM SCT040 OVC047 13/05 A3029 RMK AO2
KIMS 111615Z AUTO 02005KT 10SM BKN037 OVC044 13/05 A3028 RMK AO2
KIMS 111555Z AUTO 36006KT 10SM BKN034 OVC055 13/06 A3028 RMK AO2
KIMS 111535Z AUTO 02006KT 10SM BKN032 OVC055 13/06 A3028 RMK AO2
KIMS 111515Z AUTO 03005KT 10SM SCT029 OVC055 12/06 A3029 RMK AO2
KIMS 111455Z AUTO 35005KT 10SM BKN027 OVC033 12/06 A3028 RMK AO2
KIMS 111435Z AUTO 03005G14KT 10SM BKN027 12/07 A3028 RMK AO2
KIMS 111415Z AUTO 01005KT 10SM SCT022 12/07 A3027 RMK AO2
KIMS 111355Z AUTO 05006KT 10SM CLR 12/07 A3027 RMK AO2
KIMS 111335Z AUTO 04006KT 10SM SCT019 11/07 A3027 RMK AO2
KIMS 111315Z AUTO 04007KT 10SM CLR 10/07 A3027 RMK AO2
KIMS 111255Z AUTO 05008KT 10SM CLR 10/07 A3026 RMK AO2
KIMS 111235Z AUTO 02004KT 10SM CLR 09/07 A3026 RMK AO2
KIMS 111215Z AUTO 00000KT 10SM CLR 09/08 A3025 RMK AO2
KIMS 111155Z AUTO 36004KT 10SM CLR 08/07 A3024 RMK AO2
KIMS 111135Z AUTO 36003KT 10SM CLR 07/07 A3023 RMK AO2
KIMS 111115Z AUTO 00000KT 10SM CLR 06/06 A3023 RMK AO2
KIMS 111055Z AUTO 00000KT 10SM CLR 06/06 A3022 RMK AO2
KIMS 111035Z AUTO 00000KT 10SM CLR 06/06 A3022 RMK AO2
KIMS 111015Z AUTO 00000KT 10SM CLR 06/06 A3021 RMK AO2
KIMS 110955Z AUTO 00000KT 10SM CLR 06/06 A3022 RMK AO2
KIMS 110935Z AUTO 00000KT 10SM CLR 06/06 A3020 RMK AO2
KIMS 110915Z AUTO 00000KT 10SM CLR 06/06 A3020 RMK AO2
KIMS 110855Z AUTO 00000KT 10SM CLR 06/06 A3019 RMK AO2
KIMS 110835Z AUTO 00000KT 10SM CLR 07/06 A3019 RMK AO2
KIMS 110815Z AUTO 00000KT 10SM CLR 07/06 A3018 RMK AO2
KIMS 110755Z AUTO 00000KT 10SM CLR 07/06 A3017 RMK AO2
KIMS 110735Z AUTO 00000KT 10SM CLR 07/07 A3016 RMK AO2
KIMS 110715Z AUTO 00000KT 10SM CLR 06/06 A3016 RMK AO2
KIMS 110655Z AUTO 00000KT 10SM CLR 06/06 A3016 RMK AO2
KIMS 110635Z AUTO 00000KT 10SM CLR 06/06 A3017 RMK AO2
KIMS 110615Z AUTO 00000KT 10SM CLR 07/07 A3017 RMK AO2
KIMS 110555Z AUTO 00000KT 10SM CLR 07/07 A3017 RMK AO2
KIMS 110535Z AUTO 00000KT 10SM CLR 07/07 A3017 RMK AO2
KIMS 110515Z AUTO 00000KT 10SM CLR 08/08 A3016 RMK AO2
KIMS 110455Z AUTO 00000KT 10SM CLR 08/08 A3016 RMK AO2
KIMS 110435Z AUTO 00000KT 10SM CLR 09/08 A3016 RMK AO2
KIMS 110415Z AUTO 00000KT 10SM CLR 09/08 A3016 RMK AO2
KIMS 110355Z AUTO 00000KT 10SM CLR 10/09 A3017 RMK AO2
KIMS 110335Z AUTO 00000KT 10SM CLR 10/09 A3017 RMK AO2
KIMS 110315Z AUTO 00000KT 10SM CLR 10/09 A3017 RMK AO2
KIMS 110255Z AUTO 00000KT 10SM CLR 11/10 A3017 RMK AO2
KIMS 110235Z AUTO 00000KT 10SM CLR 11/10 A3018 RMK AO2
KIMS 110215Z AUTO 00000KT 10SM CLR 11/09 A3017 RMK AO2
KIMS 110155Z AUTO 00000KT 10SM CLR 11/08 A3016 RMK AO2
KIMS 110135Z AUTO 00000KT 10SM CLR 12/06 A3014 RMK AO2
KIMS 110115Z AUTO 00000KT 10SM CLR 12/05 A3014 RMK AO2
KIMS 110055Z AUTO 00000KT 10SM CLR 12/06 A3014 RMK AO2
KIMS 110035Z AUTO 00000KT 10SM CLR 13/06 A3014 RMK AO2
KIMS 110015Z AUTO 00000KT 10SM CLR 13/05 A3013 RMK AO2
KIMS 102355Z AUTO 00000KT 10SM CLR 13/05 A3012 RMK AO2
KIMS 102335Z AUTO 00000KT 10SM CLR 14/05 A3011 RMK AO2
KIMS 102315Z AUTO 00000KT 10SM CLR 15/04 A3012 RMK AO2
KIMS 102255Z AUTO 00000KT 10SM CLR 15/03 A3012 RMK AO2
KIMS 102235Z AUTO 00000KT 10SM CLR 15/02 A3013 RMK AO2
KIMS 102215Z AUTO 00000KT 10SM CLR 15/02 A3014 RMK AO2
KIMS 102155Z AUTO 00000KT 10SM SCT070 16/03 A3014 RMK AO2
KIMS 102135Z AUTO 06004KT 10SM SCT070 16/03 A3014 RMK AO2
KIMS 102115Z AUTO 00000KT 10SM SCT060 16/02 A3014 RMK AO2
KIMS 102055Z AUTO 04006KT 10SM SCT060 17/03 A3013 RMK AO2
KIMS 102035Z AUTO 08006KT 10SM SCT060 16/03 A3013 RMK AO2
KIMS 102015Z AUTO 07006KT 10SM BKN060 17/03 A3013 RMK AO2
KIMS 101955Z AUTO 00000KT 10SM SCT060 17/02 A3013 RMK AO2
KIMS 101935Z AUTO 07007KT 10SM BKN060 16/03 A3013 RMK AO2
KIMS 101915Z AUTO 05009G18KT 10SM CLR 16/02 A3013 RMK AO2
KIMS 101855Z AUTO 06009KT 10SM CLR 16/03 A3013 RMK AO2
KIMS 101835Z AUTO 08010G15KT 10SM CLR 16/03 A3014 RMK AO2
KIMS 101815Z AUTO 01006KT 10SM CLR 16/03 A3014 RMK AO2
KIMS 101755Z AUTO 04005KT 10SM CLR 15/03 A3014 RMK AO2
KIMS 101735Z AUTO 04007KT 029V109 10SM CLR 15/03 A3014 RMK AO2
KIMS 101715Z AUTO 07008KT 10SM CLR 15/03 A3013 RMK AO2
KIMS 101655Z AUTO 08005KT 10SM CLR 14/03 A3014 RMK AO2
KIMS 101635Z AUTO 01005KT 10SM CLR 13/02 A3015 RMK AO2
KIMS 101615Z AUTO 05005KT 10SM CLR 13/03 A3015 RMK AO2
KIMS 101555Z AUTO 00000KT 10SM CLR 12/05 A3015 RMK AO2
KIMS 101535Z AUTO 04006KT 10SM CLR 12/05 A3015 RMK AO2
KIMS 101515Z AUTO 05005KT 10SM CLR 11/05 A3015 RMK AO2
KIMS 101455Z AUTO 02006KT 10SM CLR 11/05 A3015 RMK AO2
KIMS 101435Z AUTO 05006KT 10SM CLR 11/05 A3014 RMK AO2
KIMS 101415Z AUTO 06005KT 10SM CLR 10/06 A3015 RMK AO2
KIMS 101355Z AUTO 02005KT 10SM CLR 08/06 A3014 RMK AO2